sensor_id;sensor_type;location;lat;lon;timestamp;temperature;humidity
68867;SHT30;56451;44.804;20.476;2023-05-13T00:01:57;13.76;68.06
68867;SHT30;56451;44.804;20.476;2023-05-13T00:04:23;13.71;68.09
68867;SHT30;56451;44.804;20.476;2023-05-13T00:06:49;13.77;67.87
68867;SHT30;56451;44.804;20.476;2023-05-13T00:09:15;13.78;67.88
68867;SHT30;56451;44.804;20.476;2023-05-13T00:11:41;13.83;67.73
68867;SHT30;56451;44.804;20.476;2023-05-13T00:14:07;13.81;67.53
68867;SHT30;56451;44.804;20.476;2023-05-13T00:16:35;13.77;67.71
68867;SHT30;56451;44.804;20.476;2023-05-13T00:19:01;13.77;67.76
68867;SHT30;56451;44.804;20.476;2023-05-13T00:21:27;13.84;67.55
68867;SHT30;56451;44.804;20.476;2023-05-13T00:23:53;13.81;67.51
68867;SHT30;56451;44.804;20.476;2023-05-13T00:26:19;13.87;67.25
68867;SHT30;56451;44.804;20.476;2023-05-13T00:28:47;13.87;67.20
68867;SHT30;56451;44.804;20.476;2023-05-13T00:31:13;13.90;67.03
68867;SHT30;56451;44.804;20.476;2023-05-13T00:33:39;13.93;66.95
68867;SHT30;56451;44.804;20.476;2023-05-13T00:36:06;13.94;66.97
68867;SHT30;56451;44.804;20.476;2023-05-13T00:38:33;13.94;66.71
68867;SHT30;56451;44.804;20.476;2023-05-13T00:41:02;13.94;66.75
68867;SHT30;56451;44.804;20.476;2023-05-13T00:43:28;13.90;66.81
68867;SHT30;56451;44.804;20.476;2023-05-13T00:45:54;13.88;66.94
68867;SHT30;56451;44.804;20.476;2023-05-13T00:48:20;13.88;66.89
68867;SHT30;56451;44.804;20.476;2023-05-13T00:50:47;13.94;66.67
68867;SHT30;56451;44.804;20.476;2023-05-13T00:53:14;13.93;66.68
68867;SHT30;56451;44.804;20.476;2023-05-13T00:55:41;13.98;66.60
68867;SHT30;56451;44.804;20.476;2023-05-13T00:58:07;14.00;66.51
68867;SHT30;56451;44.804;20.476;2023-05-13T01:00:38;14.05;66.14
68867;SHT30;56451;44.804;20.476;2023-05-13T01:03:13;14.03;66.11
68867;SHT30;56451;44.804;20.476;2023-05-13T01:11:28;14.08;66.07
68867;SHT30;56451;44.804;20.476;2023-05-13T01:14:01;14.11;65.97
68867;SHT30;56451;44.804;20.476;2023-05-13T01:16:45;14.08;65.88
68867;SHT30;56451;44.804;20.476;2023-05-13T01:19:40;14.05;66.18
68867;SHT30;56451;44.804;20.476;2023-05-13T01:22:07;14.04;66.14
68867;SHT30;56451;44.804;20.476;2023-05-13T01:24:34;14.03;66.08
68867;SHT30;56451;44.804;20.476;2023-05-13T01:27:01;14.01;66.13
68867;SHT30;56451;44.804;20.476;2023-05-13T01:29:27;14.04;66.24
68867;SHT30;56451;44.804;20.476;2023-05-13T01:31:55;14.03;66.52
68867;SHT30;56451;44.804;20.476;2023-05-13T01:34:22;14.05;66.57
68867;SHT30;56451;44.804;20.476;2023-05-13T01:36:50;14.05;66.69
68867;SHT30;56451;44.804;20.476;2023-05-13T01:39:18;13.98;67.00
68867;SHT30;56451;44.804;20.476;2023-05-13T01:41:46;13.93;67.21
68867;SHT30;56451;44.804;20.476;2023-05-13T01:44:12;13.97;67.49
68867;SHT30;56451;44.804;20.476;2023-05-13T01:46:38;13.93;67.82
68867;SHT30;56451;44.804;20.476;2023-05-13T01:49:04;13.91;68.13
68867;SHT30;56451;44.804;20.476;2023-05-13T01:51:33;13.90;68.14
68867;SHT30;56451;44.804;20.476;2023-05-13T01:54:01;13.83;68.35
68867;SHT30;56451;44.804;20.476;2023-05-13T01:56:27;13.78;68.58
68867;SHT30;56451;44.804;20.476;2023-05-13T01:58:53;13.77;68.65
68867;SHT30;56451;44.804;20.476;2023-05-13T02:01:19;13.76;68.45
68867;SHT30;56451;44.804;20.476;2023-05-13T02:03:45;13.77;68.42
68867;SHT30;56451;44.804;20.476;2023-05-13T02:06:11;13.78;68.25
68867;SHT30;56451;44.804;20.476;2023-05-13T02:08:39;13.77;68.12
68867;SHT30;56451;44.804;20.476;2023-05-13T02:11:05;13.76;68.14
68867;SHT30;56451;44.804;20.476;2023-05-13T02:13:31;13.73;68.27
68867;SHT30;56451;44.804;20.476;2023-05-13T02:15:57;13.74;68.18
68867;SHT30;56451;44.804;20.476;2023-05-13T02:18:23;13.71;68.26
68867;SHT30;56451;44.804;20.476;2023-05-13T02:20:49;13.71;68.19
68867;SHT30;56451;44.804;20.476;2023-05-13T02:23:16;13.70;68.21
68867;SHT30;56451;44.804;20.476;2023-05-13T02:25:42;13.71;68.25
68867;SHT30;56451;44.804;20.476;2023-05-13T02:28:08;13.71;67.88
68867;SHT30;56451;44.804;20.476;2023-05-13T02:30:35;13.70;67.77
68867;SHT30;56451;44.804;20.476;2023-05-13T02:33:01;13.71;67.79
68867;SHT30;56451;44.804;20.476;2023-05-13T02:35:27;13.70;67.82
68867;SHT30;56451;44.804;20.476;2023-05-13T02:37:58;13.71;67.72
68867;SHT30;56451;44.804;20.476;2023-05-13T02:40:26;13.74;67.69
68867;SHT30;56451;44.804;20.476;2023-05-13T02:42:52;13.71;67.58
68867;SHT30;56451;44.804;20.476;2023-05-13T02:45:25;13.69;67.42
68867;SHT30;56451;44.804;20.476;2023-05-13T02:47:54;13.69;67.45
68867;SHT30;56451;44.804;20.476;2023-05-13T02:50:20;13.69;67.25
68867;SHT30;56451;44.804;20.476;2023-05-13T02:52:46;13.66;67.16
68867;SHT30;56451;44.804;20.476;2023-05-13T02:55:13;13.67;67.21
68867;SHT30;56451;44.804;20.476;2023-05-13T02:57:39;13.62;67.18
68867;SHT30;56451;44.804;20.476;2023-05-13T03:00:06;13.66;67.01
68867;SHT30;56451;44.804;20.476;2023-05-13T03:02:33;13.62;67.05
68867;SHT30;56451;44.804;20.476;2023-05-13T03:04:59;13.59;66.86
68867;SHT30;56451;44.804;20.476;2023-05-13T03:07:25;13.63;66.78
68867;SHT30;56451;44.804;20.476;2023-05-13T03:09:51;13.60;66.84
68867;SHT30;56451;44.804;20.476;2023-05-13T03:12:18;13.56;67.05
68867;SHT30;56451;44.804;20.476;2023-05-13T03:14:46;13.53;67.01
68867;SHT30;56451;44.804;20.476;2023-05-13T03:20:00;13.50;66.85
68867;SHT30;56451;44.804;20.476;2023-05-13T03:22:27;13.52;66.83
68867;SHT30;56451;44.804;20.476;2023-05-13T03:24:53;13.53;66.86
68867;SHT30;56451;44.804;20.476;2023-05-13T03:27:21;13.53;66.71
68867;SHT30;56451;44.804;20.476;2023-05-13T03:29:47;13.50;66.85
68867;SHT30;56451;44.804;20.476;2023-05-13T03:32:14;13.46;67.02
68867;SHT30;56451;44.804;20.476;2023-05-13T03:34:41;13.43;66.95
68867;SHT30;56451;44.804;20.476;2023-05-13T03:37:07;13.49;66.91
68867;SHT30;56451;44.804;20.476;2023-05-13T03:39:35;13.52;66.77
68867;SHT30;56451;44.804;20.476;2023-05-13T03:42:01;13.56;66.70
68867;SHT30;56451;44.804;20.476;2023-05-13T03:44:27;13.53;66.72
68867;SHT30;56451;44.804;20.476;2023-05-13T03:46:53;13.50;66.69
68867;SHT30;56451;44.804;20.476;2023-05-13T03:49:19;13.50;66.73
68867;SHT30;56451;44.804;20.476;2023-05-13T03:51:45;13.46;66.85
68867;SHT30;56451;44.804;20.476;2023-05-13T03:54:11;13.49;66.82
68867;SHT30;56451;44.804;20.476;2023-05-13T03:56:38;13.56;66.58
68867;SHT30;56451;44.804;20.476;2023-05-13T03:59:05;13.53;66.58
68867;SHT30;56451;44.804;20.476;2023-05-13T04:01:30;13.53;66.60
68867;SHT30;56451;44.804;20.476;2023-05-13T04:03:56;13.55;66.61
68867;SHT30;56451;44.804;20.476;2023-05-13T04:06:22;13.59;66.48
68867;SHT30;56451;44.804;20.476;2023-05-13T04:08:50;13.57;66.55
68867;SHT30;56451;44.804;20.476;2023-05-13T04:11:15;13.56;66.55
68867;SHT30;56451;44.804;20.476;2023-05-13T04:13:41;13.53;66.67
68867;SHT30;56451;44.804;20.476;2023-05-13T04:16:10;13.53;66.79
68867;SHT30;56451;44.804;20.476;2023-05-13T04:18:36;13.57;66.72
68867;SHT30;56451;44.804;20.476;2023-05-13T04:21:06;13.62;66.79
68867;SHT30;56451;44.804;20.476;2023-05-13T04:23:33;13.59;66.83
68867;SHT30;56451;44.804;20.476;2023-05-13T04:25:59;13.57;66.89
68867;SHT30;56451;44.804;20.476;2023-05-13T04:28:24;13.62;66.99
68867;SHT30;56451;44.804;20.476;2023-05-13T04:30:51;13.64;66.98
68867;SHT30;56451;44.804;20.476;2023-05-13T04:33:18;13.64;66.89
68867;SHT30;56451;44.804;20.476;2023-05-13T04:35:46;13.67;66.76
68867;SHT30;56451;44.804;20.476;2023-05-13T04:38:12;13.70;66.73
68867;SHT30;56451;44.804;20.476;2023-05-13T04:40:39;13.74;66.69
68867;SHT30;56451;44.804;20.476;2023-05-13T04:43:08;13.73;66.79
68867;SHT30;56451;44.804;20.476;2023-05-13T04:45:42;13.80;66.76
68867;SHT30;56451;44.804;20.476;2023-05-13T04:48:11;13.83;66.54
68867;SHT30;56451;44.804;20.476;2023-05-13T04:50:37;13.81;66.67
68867;SHT30;56451;44.804;20.476;2023-05-13T04:53:03;13.80;66.74
68867;SHT30;56451;44.804;20.476;2023-05-13T04:55:29;13.83;66.78
68867;SHT30;56451;44.804;20.476;2023-05-13T04:57:55;13.88;66.78
68867;SHT30;56451;44.804;20.476;2023-05-13T05:00:21;13.93;66.71
68867;SHT30;56451;44.804;20.476;2023-05-13T05:02:49;13.91;66.73
68867;SHT30;56451;44.804;20.476;2023-05-13T05:05:15;13.94;66.60
68867;SHT30;56451;44.804;20.476;2023-05-13T05:07:41;13.94;66.70
68867;SHT30;56451;44.804;20.476;2023-05-13T05:10:08;13.98;66.49
68867;SHT30;56451;44.804;20.476;2023-05-13T05:12:36;14.05;66.48
68867;SHT30;56451;44.804;20.476;2023-05-13T05:15:04;14.08;66.42
68867;SHT30;56451;44.804;20.476;2023-05-13T05:17:30;14.11;66.42
68867;SHT30;56451;44.804;20.476;2023-05-13T05:20:00;14.17;66.31
68867;SHT30;56451;44.804;20.476;2023-05-13T05:22:26;14.24;66.05
68867;SHT30;56451;44.804;20.476;2023-05-13T05:24:52;14.26;65.94
68867;SHT30;56451;44.804;20.476;2023-05-13T05:27:18;14.29;65.87
68867;SHT30;56451;44.804;20.476;2023-05-13T05:29:44;14.31;65.72
68867;SHT30;56451;44.804;20.476;2023-05-13T05:32:10;14.36;65.65
68867;SHT30;56451;44.804;20.476;2023-05-13T05:34:36;14.36;65.68
68867;SHT30;56451;44.804;20.476;2023-05-13T05:37:03;14.39;65.82
68867;SHT30;56451;44.804;20.476;2023-05-13T05:39:31;14.42;65.53
68867;SHT30;56451;44.804;20.476;2023-05-13T05:41:58;14.45;65.57
68867;SHT30;56451;44.804;20.476;2023-05-13T05:44:23;14.48;65.58
68867;SHT30;56451;44.804;20.476;2023-05-13T05:46:49;14.52;65.49
68867;SHT30;56451;44.804;20.476;2023-05-13T05:49:17;14.61;65.29
68867;SHT30;56451;44.804;20.476;2023-05-13T05:51:43;14.59;65.39
68867;SHT30;56451;44.804;20.476;2023-05-13T05:54:09;14.61;65.49
68867;SHT30;56451;44.804;20.476;2023-05-13T05:56:36;14.65;65.66
68867;SHT30;56451;44.804;20.476;2023-05-13T05:59:02;14.72;65.39
68867;SHT30;56451;44.804;20.476;2023-05-13T06:01:28;14.73;65.24
68867;SHT30;56451;44.804;20.476;2023-05-13T06:03:58;14.79;65.33
68867;SHT30;56451;44.804;20.476;2023-05-13T06:06:24;14.86;65.30
68867;SHT30;56451;44.804;20.476;2023-05-13T06:08:50;14.96;64.70
68867;SHT30;56451;44.804;20.476;2023-05-13T06:11:16;15.01;64.60
68867;SHT30;56451;44.804;20.476;2023-05-13T06:13:42;15.07;64.37
68867;SHT30;56451;44.804;20.476;2023-05-13T06:16:08;15.12;64.05
68867;SHT30;56451;44.804;20.476;2023-05-13T06:18:37;15.20;63.93
68867;SHT30;56451;44.804;20.476;2023-05-13T06:21:03;15.27;63.58
68867;SHT30;56451;44.804;20.476;2023-05-13T06:23:29;15.30;63.45
68867;SHT30;56451;44.804;20.476;2023-05-13T06:25:55;15.32;63.52
68867;SHT30;56451;44.804;20.476;2023-05-13T06:28:23;15.39;63.40
68867;SHT30;56451;44.804;20.476;2023-05-13T06:30:49;15.42;63.29
68867;SHT30;56451;44.804;20.476;2023-05-13T06:33:15;15.45;63.28
68867;SHT30;56451;44.804;20.476;2023-05-13T06:35:41;15.48;63.21
68867;SHT30;56451;44.804;20.476;2023-05-13T06:38:12;15.55;63.42
68867;SHT30;56451;44.804;20.476;2023-05-13T06:40:39;15.62;63.43
68867;SHT30;56451;44.804;20.476;2023-05-13T06:43:05;15.69;63.11
68867;SHT30;56451;44.804;20.476;2023-05-13T06:45:36;15.76;62.84
68867;SHT30;56451;44.804;20.476;2023-05-13T06:48:02;15.85;62.89
68867;SHT30;56451;44.804;20.476;2023-05-13T06:50:29;15.95;62.80
68867;SHT30;56451;44.804;20.476;2023-05-13T06:52:54;16.02;62.36
68867;SHT30;56451;44.804;20.476;2023-05-13T06:55:20;16.03;62.19
68867;SHT30;56451;44.804;20.476;2023-05-13T06:57:46;16.06;62.32
68867;SHT30;56451;44.804;20.476;2023-05-13T07:00:16;16.12;62.35
68867;SHT30;56451;44.804;20.476;2023-05-13T07:02:42;16.20;62.18
68867;SHT30;56451;44.804;20.476;2023-05-13T07:05:11;16.33;61.90
68867;SHT30;56451;44.804;20.476;2023-05-13T07:07:37;16.41;61.25
68867;SHT30;56451;44.804;20.476;2023-05-13T07:10:03;16.45;61.36
68867;SHT30;56451;44.804;20.476;2023-05-13T07:12:29;16.50;61.26
68867;SHT30;56451;44.804;20.476;2023-05-13T07:14:55;16.57;60.99
68867;SHT30;56451;44.804;20.476;2023-05-13T07:17:21;16.67;61.11
68867;SHT30;56451;44.804;20.476;2023-05-13T07:19:47;16.74;60.56
68867;SHT30;56451;44.804;20.476;2023-05-13T07:22:13;16.75;60.36
68867;SHT30;56451;44.804;20.476;2023-05-13T07:24:39;16.75;60.52
68867;SHT30;56451;44.804;20.476;2023-05-13T07:27:06;16.78;60.64
68867;SHT30;56451;44.804;20.476;2023-05-13T07:29:32;16.78;60.88
68867;SHT30;56451;44.804;20.476;2023-05-13T07:32:03;16.85;61.09
68867;SHT30;56451;44.804;20.476;2023-05-13T07:34:29;16.92;60.62
68867;SHT30;56451;44.804;20.476;2023-05-13T07:36:55;17.03;60.25
68867;SHT30;56451;44.804;20.476;2023-05-13T07:39:20;17.09;59.95
68867;SHT30;56451;44.804;20.476;2023-05-13T07:41:46;17.16;59.84
68867;SHT30;56451;44.804;20.476;2023-05-13T07:44:12;17.24;59.59
68867;SHT30;56451;44.804;20.476;2023-05-13T07:46:38;17.30;58.83
68867;SHT30;56451;44.804;20.476;2023-05-13T07:49:05;17.32;58.97
68867;SHT30;56451;44.804;20.476;2023-05-13T07:51:34;17.37;59.09
68867;SHT30;56451;44.804;20.476;2023-05-13T07:54:00;17.46;59.14
68867;SHT30;56451;44.804;20.476;2023-05-13T07:56:26;17.54;59.09
68867;SHT30;56451;44.804;20.476;2023-05-13T07:58:52;17.64;58.80
68867;SHT30;56451;44.804;20.476;2023-05-13T08:01:18;17.73;58.70
68867;SHT30;56451;44.804;20.476;2023-05-13T08:03:44;17.78;58.16
68867;SHT30;56451;44.804;20.476;2023-05-13T08:06:10;17.78;58.26
68867;SHT30;56451;44.804;20.476;2023-05-13T08:08:36;17.87;58.10
68867;SHT30;56451;44.804;20.476;2023-05-13T08:11:02;17.87;58.07
68867;SHT30;56451;44.804;20.476;2023-05-13T08:13:28;17.91;58.55
68867;SHT30;56451;44.804;20.476;2023-05-13T08:15:54;18.00;58.34
68867;SHT30;56451;44.804;20.476;2023-05-13T08:18:20;18.09;58.20
68867;SHT30;56451;44.804;20.476;2023-05-13T08:20:46;18.15;57.52
68867;SHT30;56451;44.804;20.476;2023-05-13T08:23:11;18.25;57.41
68867;SHT30;56451;44.804;20.476;2023-05-13T08:25:37;18.30;57.13
68867;SHT30;56451;44.804;20.476;2023-05-13T08:28:04;18.35;57.45
68867;SHT30;56451;44.804;20.476;2023-05-13T08:30:30;18.36;57.22
68867;SHT30;56451;44.804;20.476;2023-05-13T08:32:56;18.43;57.36
68867;SHT30;56451;44.804;20.476;2023-05-13T08:35:21;18.55;57.01
68867;SHT30;56451;44.804;20.476;2023-05-13T08:37:47;18.61;56.48
68867;SHT30;56451;44.804;20.476;2023-05-13T08:40:13;18.66;56.23
68867;SHT30;56451;44.804;20.476;2023-05-13T08:42:44;18.71;56.14
68867;SHT30;56451;44.804;20.476;2023-05-13T08:45:13;18.81;56.09
68867;SHT30;56451;44.804;20.476;2023-05-13T08:47:50;18.87;55.49
68867;SHT30;56451;44.804;20.476;2023-05-13T08:50:19;18.91;55.26
68867;SHT30;56451;44.804;20.476;2023-05-13T08:52:53;19.01;55.03
68867;SHT30;56451;44.804;20.476;2023-05-13T08:55:20;19.06;54.82
68867;SHT30;56451;44.804;20.476;2023-05-13T08:57:47;19.07;55.14
68867;SHT30;56451;44.804;20.476;2023-05-13T09:00:13;19.17;55.62
68867;SHT30;56451;44.804;20.476;2023-05-13T09:02:42;19.21;54.85
68867;SHT30;56451;44.804;20.476;2023-05-13T09:05:09;19.29;54.31
68867;SHT30;56451;44.804;20.476;2023-05-13T09:07:35;19.35;54.17
68867;SHT30;56451;44.804;20.476;2023-05-13T09:10:02;19.35;54.31
68867;SHT30;56451;44.804;20.476;2023-05-13T09:12:46;19.42;54.01
68867;SHT30;56451;44.804;20.476;2023-05-13T09:15:17;19.49;53.63
68867;SHT30;56451;44.804;20.476;2023-05-13T09:17:54;19.46;53.62
68867;SHT30;56451;44.804;20.476;2023-05-13T09:20:21;19.48;54.07
68867;SHT30;56451;44.804;20.476;2023-05-13T09:22:51;19.55;54.41
68867;SHT30;56451;44.804;20.476;2023-05-13T09:25:19;19.58;54.54
68867;SHT30;56451;44.804;20.476;2023-05-13T09:27:47;19.61;54.40
68867;SHT30;56451;44.804;20.476;2023-05-13T09:30:13;19.70;54.55
68867;SHT30;56451;44.804;20.476;2023-05-13T09:32:40;19.75;53.32
68867;SHT30;56451;44.804;20.476;2023-05-13T09:35:12;19.79;53.67
68867;SHT30;56451;44.804;20.476;2023-05-13T09:37:45;19.86;53.93
68867;SHT30;56451;44.804;20.476;2023-05-13T09:40:15;19.92;53.86
68867;SHT30;56451;44.804;20.476;2023-05-13T09:42:43;20.00;53.49
68867;SHT30;56451;44.804;20.476;2023-05-13T09:45:13;20.06;52.93
68867;SHT30;56451;44.804;20.476;2023-05-13T09:47:39;20.12;53.03
68867;SHT30;56451;44.804;20.476;2023-05-13T09:50:06;20.16;52.61
68867;SHT30;56451;44.804;20.476;2023-05-13T09:52:40;20.17;52.35
68867;SHT30;56451;44.804;20.476;2023-05-13T09:55:09;20.20;52.20
68867;SHT30;56451;44.804;20.476;2023-05-13T09:57:35;20.25;51.99
68867;SHT30;56451;44.804;20.476;2023-05-13T10:00:04;20.30;52.11
68867;SHT30;56451;44.804;20.476;2023-05-13T10:02:38;20.37;52.00
68867;SHT30;56451;44.804;20.476;2023-05-13T10:05:04;20.42;51.56
68867;SHT30;56451;44.804;20.476;2023-05-13T10:07:34;20.49;51.10
68867;SHT30;56451;44.804;20.476;2023-05-13T10:10:02;20.54;50.86
68867;SHT30;56451;44.804;20.476;2023-05-13T10:12:30;20.65;50.76
68867;SHT30;56451;44.804;20.476;2023-05-13T10:14:57;20.68;50.70
68867;SHT30;56451;44.804;20.476;2023-05-13T10:17:24;20.71;50.56
68867;SHT30;56451;44.804;20.476;2023-05-13T10:19:52;20.75;50.40
68867;SHT30;56451;44.804;20.476;2023-05-13T10:22:31;20.83;50.52
68867;SHT30;56451;44.804;20.476;2023-05-13T10:24:59;20.89;50.21
68867;SHT30;56451;44.804;20.476;2023-05-13T10:27:30;20.93;50.52
68867;SHT30;56451;44.804;20.476;2023-05-13T10:29:58;21.04;50.19
68867;SHT30;56451;44.804;20.476;2023-05-13T10:32:29;21.11;49.89
68867;SHT30;56451;44.804;20.476;2023-05-13T10:35:03;21.18;49.59
68867;SHT30;56451;44.804;20.476;2023-05-13T10:45:38;21.40;49.48
68867;SHT30;56451;44.804;20.476;2023-05-13T10:48:10;21.46;48.52
68867;SHT30;56451;44.804;20.476;2023-05-13T10:50:36;21.55;48.57
68867;SHT30;56451;44.804;20.476;2023-05-13T10:53:08;21.69;48.61
68867;SHT30;56451;44.804;20.476;2023-05-13T10:55:43;21.77;48.20
68867;SHT30;56451;44.804;20.476;2023-05-13T10:58:13;21.82;48.39
68867;SHT30;56451;44.804;20.476;2023-05-13T11:00:43;21.89;47.91
68867;SHT30;56451;44.804;20.476;2023-05-13T11:05:47;22.06;46.83
68867;SHT30;56451;44.804;20.476;2023-05-13T11:08:36;22.17;46.06
68867;SHT30;56451;44.804;20.476;2023-05-13T11:13:51;22.33;45.98
68867;SHT30;56451;44.804;20.476;2023-05-13T11:16:17;22.42;46.45
68867;SHT30;56451;44.804;20.476;2023-05-13T11:18:43;22.45;46.18
68867;SHT30;56451;44.804;20.476;2023-05-13T11:21:09;22.52;45.81
68867;SHT30;56451;44.804;20.476;2023-05-13T11:26:18;22.56;45.17
68867;SHT30;56451;44.804;20.476;2023-05-13T11:29:02;22.61;44.95
68867;SHT30;56451;44.804;20.476;2023-05-13T11:31:41;22.63;44.62
68867;SHT30;56451;44.804;20.476;2023-05-13T11:34:11;22.61;44.14
68867;SHT30;56451;44.804;20.476;2023-05-13T11:36:39;22.70;44.02
68867;SHT30;56451;44.804;20.476;2023-05-13T11:39:13;22.70;44.29
68867;SHT30;56451;44.804;20.476;2023-05-13T11:41:41;22.77;43.73
68867;SHT30;56451;44.804;20.476;2023-05-13T11:44:07;22.81;43.39
68867;SHT30;56451;44.804;20.476;2023-05-13T11:46:35;22.91;43.73
68867;SHT30;56451;44.804;20.476;2023-05-13T11:49:01;22.97;44.10
68867;SHT30;56451;44.804;20.476;2023-05-13T11:51:27;23.02;44.30
68867;SHT30;56451;44.804;20.476;2023-05-13T11:54:02;23.12;44.11
68867;SHT30;56451;44.804;20.476;2023-05-13T11:56:29;23.15;43.27
68867;SHT30;56451;44.804;20.476;2023-05-13T11:58:55;23.21;42.54
68867;SHT30;56451;44.804;20.476;2023-05-13T12:01:36;23.21;41.91
68867;SHT30;56451;44.804;20.476;2023-05-13T12:04:02;23.25;41.82
68867;SHT30;56451;44.804;20.476;2023-05-13T12:06:29;23.29;41.00
68867;SHT30;56451;44.804;20.476;2023-05-13T12:09:04;23.25;40.51
68867;SHT30;56451;44.804;20.476;2023-05-13T12:11:30;23.32;41.13
68867;SHT30;56451;44.804;20.476;2023-05-13T12:13:56;23.35;41.97
68867;SHT30;56451;44.804;20.476;2023-05-13T12:16:22;23.33;42.68
68867;SHT30;56451;44.804;20.476;2023-05-13T12:18:58;23.35;42.80
68867;SHT30;56451;44.804;20.476;2023-05-13T12:21:24;23.41;42.59
68867;SHT30;56451;44.804;20.476;2023-05-13T12:23:50;23.39;42.34
68867;SHT30;56451;44.804;20.476;2023-05-13T12:26:16;23.39;42.30
68867;SHT30;56451;44.804;20.476;2023-05-13T12:28:42;23.43;42.55
68867;SHT30;56451;44.804;20.476;2023-05-13T12:31:14;23.45;42.04
68867;SHT30;56451;44.804;20.476;2023-05-13T12:33:42;23.43;41.75
68867;SHT30;56451;44.804;20.476;2023-05-13T12:36:24;23.49;41.60
68867;SHT30;56451;44.804;20.476;2023-05-13T12:38:58;23.53;41.52
68867;SHT30;56451;44.804;20.476;2023-05-13T12:41:27;23.60;41.41
68867;SHT30;56451;44.804;20.476;2023-05-13T12:44:19;23.65;41.14
68867;SHT30;56451;44.804;20.476;2023-05-13T12:46:53;23.76;40.73
68867;SHT30;56451;44.804;20.476;2023-05-13T12:49:19;23.76;40.82
68867;SHT30;56451;44.804;20.476;2023-05-13T12:51:45;23.80;41.07
68867;SHT30;56451;44.804;20.476;2023-05-13T12:54:11;23.86;41.26
68867;SHT30;56451;44.804;20.476;2023-05-13T12:56:37;23.96;40.90
68867;SHT30;56451;44.804;20.476;2023-05-13T12:59:06;23.94;41.06
68867;SHT30;56451;44.804;20.476;2023-05-13T13:01:32;23.99;40.90
68867;SHT30;56451;44.804;20.476;2023-05-13T13:03:58;24.08;40.36
68867;SHT30;56451;44.804;20.476;2023-05-13T13:06:24;24.11;40.13
68867;SHT30;56451;44.804;20.476;2023-05-13T13:08:50;24.21;39.84
68867;SHT30;56451;44.804;20.476;2023-05-13T13:11:16;24.29;39.32
68867;SHT30;56451;44.804;20.476;2023-05-13T13:13:47;24.39;39.12
68867;SHT30;56451;44.804;20.476;2023-05-13T13:16:14;24.54;38.81
68867;SHT30;56451;44.804;20.476;2023-05-13T13:18:40;24.61;38.47
68867;SHT30;56451;44.804;20.476;2023-05-13T13:21:06;24.66;38.04
68867;SHT30;56451;44.804;20.476;2023-05-13T13:23:33;24.66;37.72
68867;SHT30;56451;44.804;20.476;2023-05-13T13:25:59;24.72;37.53
68867;SHT30;56451;44.804;20.476;2023-05-13T13:28:25;24.76;37.01
68867;SHT30;56451;44.804;20.476;2023-05-13T13:30:52;24.80;37.01
68867;SHT30;56451;44.804;20.476;2023-05-13T13:33:18;24.89;36.95
68867;SHT30;56451;44.804;20.476;2023-05-13T13:35:46;24.96;36.52
68867;SHT30;56451;44.804;20.476;2023-05-13T13:38:13;25.03;36.91
68867;SHT30;56451;44.804;20.476;2023-05-13T13:40:39;25.10;37.12
68867;SHT30;56451;44.804;20.476;2023-05-13T13:43:06;25.15;37.12
68867;SHT30;56451;44.804;20.476;2023-05-13T13:45:32;25.13;37.17
68867;SHT30;56451;44.804;20.476;2023-05-13T13:47:58;25.15;37.00
68867;SHT30;56451;44.804;20.476;2023-05-13T13:50:25;25.13;37.12
68867;SHT30;56451;44.804;20.476;2023-05-13T13:52:51;25.13;36.80
68867;SHT30;56451;44.804;20.476;2023-05-13T13:55:21;25.07;36.43
68867;SHT30;56451;44.804;20.476;2023-05-13T13:57:47;25.03;36.52
68867;SHT30;56451;44.804;20.476;2023-05-13T14:00:14;24.99;37.26
68867;SHT30;56451;44.804;20.476;2023-05-13T14:02:41;24.87;37.68
68867;SHT30;56451;44.804;20.476;2023-05-13T14:05:08;24.73;38.10
68867;SHT30;56451;44.804;20.476;2023-05-13T14:07:34;24.59;38.45
68867;SHT30;56451;44.804;20.476;2023-05-13T14:10:01;24.45;37.81
68867;SHT30;56451;44.804;20.476;2023-05-13T14:12:27;24.29;37.82
68867;SHT30;56451;44.804;20.476;2023-05-13T14:14:53;24.20;37.21
68867;SHT30;56451;44.804;20.476;2023-05-13T14:17:19;24.10;36.70
68867;SHT30;56451;44.804;20.476;2023-05-13T14:19:45;23.89;36.71
68867;SHT30;56451;44.804;20.476;2023-05-13T14:22:11;23.76;37.06
68867;SHT30;56451;44.804;20.476;2023-05-13T14:24:37;23.66;37.24
68867;SHT30;56451;44.804;20.476;2023-05-13T14:27:03;23.53;37.53
68867;SHT30;56451;44.804;20.476;2023-05-13T14:29:29;23.41;37.97
68867;SHT30;56451;44.804;20.476;2023-05-13T14:31:55;23.37;38.36
68867;SHT30;56451;44.804;20.476;2023-05-13T14:34:21;23.31;38.65
68867;SHT30;56451;44.804;20.476;2023-05-13T14:36:49;23.16;38.95
68867;SHT30;56451;44.804;20.476;2023-05-13T14:39:16;23.08;39.26
68867;SHT30;56451;44.804;20.476;2023-05-13T14:41:42;23.02;39.56
68867;SHT30;56451;44.804;20.476;2023-05-13T14:44:11;22.97;39.98
68867;SHT30;56451;44.804;20.476;2023-05-13T14:46:38;22.90;40.19
68867;SHT30;56451;44.804;20.476;2023-05-13T14:49:06;22.78;42.61
68867;SHT30;56451;44.804;20.476;2023-05-13T14:51:33;22.66;44.67
68867;SHT30;56451;44.804;20.476;2023-05-13T14:53:59;22.49;45.31
68867;SHT30;56451;44.804;20.476;2023-05-13T14:56:25;22.26;45.77
68867;SHT30;56451;44.804;20.476;2023-05-13T14:58:52;22.05;45.74
68867;SHT30;56451;44.804;20.476;2023-05-13T15:01:18;21.87;46.35
68867;SHT30;56451;44.804;20.476;2023-05-13T15:03:44;21.71;47.01
68867;SHT30;56451;44.804;20.476;2023-05-13T15:06:10;21.55;47.69
68867;SHT30;56451;44.804;20.476;2023-05-13T15:08:36;21.46;48.41
68867;SHT30;56451;44.804;20.476;2023-05-13T15:11:03;21.33;48.73
68867;SHT30;56451;44.804;20.476;2023-05-13T15:13:29;21.22;49.32
68867;SHT30;56451;44.804;20.476;2023-05-13T15:16:03;21.18;49.96
68867;SHT30;56451;44.804;20.476;2023-05-13T15:18:29;21.03;50.91
68867;SHT30;56451;44.804;20.476;2023-05-13T15:20:55;20.95;51.42
68867;SHT30;56451;44.804;20.476;2023-05-13T15:23:21;20.81;51.39
68867;SHT30;56451;44.804;20.476;2023-05-13T15:25:47;20.75;51.58
68867;SHT30;56451;44.804;20.476;2023-05-13T15:28:13;20.68;51.80
68867;SHT30;56451;44.804;20.476;2023-05-13T15:30:39;20.58;51.96
68867;SHT30;56451;44.804;20.476;2023-05-13T15:33:07;20.52;52.03
68867;SHT30;56451;44.804;20.476;2023-05-13T15:35:33;20.45;52.29
68867;SHT30;56451;44.804;20.476;2023-05-13T15:37:59;20.38;52.62
68867;SHT30;56451;44.804;20.476;2023-05-13T15:40:25;20.31;52.82
68867;SHT30;56451;44.804;20.476;2023-05-13T15:42:51;20.27;53.29